Barbarossa — IBJD — position and weather

sailwx.info

Track history (hours):
 
Tides and Currents Weather Stations Pressure Air Temp Water Temp Dewpoint Dewpoint Depression Visibility Wind Speed Wind Dir Waves Ship Positions

Barbarossa

Last reported at 2017-Jul-24 01:39 UTC. Time now 2017-Jul-24 08:24 UTC.
Position N 43°18' E 014°51'.

Length 294 m; draft 8.1 m.

Type: Passenger vessel. MMSI: 247282900.

Date/timePositionNaut miles runAvg speedWind from/ knotsBaromVisibWave heightAir tempDewpointWater temp
2017-Jul-24 01:39N 43°18' E 014°51'718.5
2017-Jul-24 01:15N 43°23' E 014°45'518.4
2017-Jul-24 00:59N 43°27' E 014°41'1518.6
2017-Jul-24 00:11N 43°39' E 014°29'318.4
2017-Jul-24 00:00N 43°42' E 014°26'918.5
2017-Jul-23 23:30N 43°50' E 014°19'918.6
2017-Jul-23 23:00N 43°57' E 014°11'918.4
2017-Jul-23 22:30N 44°05' E 014°04'918.2
2017-Jul-23 22:00N 44°12' E 013°56'918.0
2017-Jul-23 21:30N 44°20' E 013°49'917.5
2017-Jul-23 21:00N 44°27' E 013°43'917.6
2017-Jul-23 20:31N 44°34' E 013°36'917.5
2017-Jul-23 20:00N 44°42' E 013°29'917.5
2017-Jul-23 19:31N 44°49' E 013°23'917.3
2017-Jul-23 19:01N 44°56' E 013°15'917.2
2017-Jul-23 18:31N 45°02' E 013°07'917.3
2017-Jul-23 18:01N 45°08' E 012°58'917.1
2017-Jul-23 17:30N 45°14' E 012°49'817.0
2017-Jul-23 17:01N 45°19' E 012°39'816.3
2017-Jul-23 16:31N 45°23' E 012°30'510.4
2017-Jul-23 16:01N 45°26' E 012°24'2 4.9
2017-Jul-23 15:31N 45°26' E 012°20'1 2.5
2017-Jul-23 15:01N 45°26' E 012°19'0 0.0
2017-Jul-23 14:28N 45°26' E 012°19'0 0.0
2017-Jul-23 13:58N 45°26' E 012°18'0 0.0
2017-Jul-23 13:28N 45°26' E 012°18'0 0.0
2017-Jul-23 12:58N 45°26' E 012°18'0 0.0
2017-Jul-23 12:28N 45°26' E 012°19'0 0.0
2017-Jul-23 11:59N 45°26' E 012°18'0 0.0
2017-Jul-23 11:29N 45°26' E 012°18'0 0.0
2017-Jul-23 11:00N 45°26' E 012°18'0 0.0
2017-Jul-23 10:30N 45°26' E 012°18'0 0.0
2017-Jul-23 10:00N 45°26' E 012°18'0 0.0
2017-Jul-23 09:30N 45°26' E 012°18'0 0.0
2017-Jul-23 08:57N 45°26' E 012°19'0 0.0
2017-Jul-23 08:30N 45°26' E 012°19'0 0.0
2017-Jul-23 08:00N 45°26' E 012°18'0 0.0
2017-Jul-23 07:29N 45°26' E 012°18'0 0.1
2017-Jul-23 07:01N 45°26' E 012°18'2 3.1
2017-Jul-23 06:30N 45°26' E 012°21'2 4.5
2017-Jul-23 06:00N 45°26' E 012°24'510.0
2017-Jul-23 05:30N 45°24' E 012°30'611.8
2017-Jul-23 05:00N 45°20' E 012°37'917.2
2017-Jul-23 04:30N 45°15' E 012°47'2119.1
2017-Jul-23 03:23N 45°02' E 013°11'820.7
2017-Jul-23 03:00N 44°57' E 013°19'1020.3
2017-Jul-23 02:30N 44°49' E 013°28'918.9
2017-Jul-23 02:00N 44°41' E 013°35'917.9
2017-Jul-23 01:30N 44°33' E 013°42'918.5
2017-Jul-23 01:00N 44°26' E 013°49'918.3
2017-Jul-23 00:30N 44°18' E 013°57'918.3
2017-Jul-23 00:00N 44°11' E 014°04'918.4
2017-Jul-22 23:30N 44°03' E 014°12'918.3
2017-Jul-22 23:00N 43°56' E 014°20'1418.2
2017-Jul-22 22:16N 43°46' E 014°33'518.1
2017-Jul-22 22:00N 43°43' E 014°37'918.5
2017-Jul-22 21:30N 43°36' E 014°45'22610.0
2017-Jul-21 22:49N 41°06' E 018°35'1016.2
2017-Jul-21 22:12N 40°56' E 018°38'416.3
2017-Jul-21 21:57N 40°53' E 018°39'716.0
2017-Jul-21 21:30N 40°45' E 018°42'815.8
2017-Jul-21 21:00N 40°38' E 018°44'815.6
2017-Jul-21 20:30N 40°30' E 018°47'815.5
2017-Jul-21 19:59N 40°23' E 018°50'815.5
2017-Jul-21 19:29N 40°15' E 018°53'10615.3
2017-Jul-21 12:36N 38°39' E 019°50'216.1
2017-Jul-21 12:30N 38°38' E 019°51'2715.7
2017-Jul-21 10:46N 38°13' E 020°07'23212.6
2017-Jul-20 16:20N 37°12' E 024°49'515.1
2017-Jul-20 16:00N 37°14' E 024°55'815.7
2017-Jul-20 15:30N 37°18' E 025°04'816.7
2017-Jul-20 15:00N 37°25' E 025°07'10 9.8
2017-Jul-20 14:00N 37°28' E 025°19'0 0.0
2017-Jul-20 13:28N 37°28' E 025°19'0 0.0
2017-Jul-20 12:58N 37°28' E 025°19'0 0.0
2017-Jul-20 12:28N 37°28' E 025°19'0 0.0
2017-Jul-20 11:55N 37°28' E 025°19'0 0.0
2017-Jul-20 11:28N 37°28' E 025°19'0 0.0
2017-Jul-20 10:59N 37°28' E 025°19'0 0.0
2017-Jul-20 10:28N 37°28' E 025°19'0 0.0
2017-Jul-20 09:59N 37°28' E 025°19'0 0.0
2017-Jul-20 09:29N 37°28' E 025°19'0 0.0
2017-Jul-20 08:58N 37°28' E 025°19'0 0.0
2017-Jul-20 08:28N 37°28' E 025°19'0 0.0
2017-Jul-20 07:58N 37°28' E 025°19'0 0.0
2017-Jul-20 07:05N 37°28' E 025°19'0 0.0
2017-Jul-20 06:58N 37°28' E 025°19'0 0.0
2017-Jul-20 06:28N 37°28' E 025°19'0 0.0
2017-Jul-20 05:58N 37°28' E 025°19'0 0.0
2017-Jul-20 05:29N 37°28' E 025°19'0 0.0
2017-Jul-20 04:58N 37°28' E 025°19'0 0.0
2017-Jul-20 04:28N 37°28' E 025°19'0 0.0
2017-Jul-20 03:58N 37°28' E 025°19'0 0.0
2017-Jul-20 03:31N 37°28' E 025°19'0 0.1
2017-Jul-20 03:01N 37°28' E 025°19'1 1.4
2017-Jul-20 02:30N 37°28' E 025°18'611.5
2017-Jul-20 02:01N 37°27' E 025°11'510.7
2017-Jul-20 01:30N 37°24' E 025°07'713.5
2017-Jul-20 01:00N 37°18' E 025°02'714.4
2017-Jul-20 00:31N 37°15' E 024°54'  
2017-Jul-16 22:44N 44°09' E 013°18'620.1
2017-Jul-16 22:26N 44°13' E 013°12'920.0
2017-Jul-16 22:00N 44°21' E 013°08'1019.1
2017-Jul-16 21:30N 44°30' E 013°04'1019.3
2017-Jul-16 21:00N 44°40' E 012°60'919.1
2017-Jul-16 20:30N 44°49' E 012°55'1019.2
2017-Jul-16 20:00N 44°57' E 012°48'1019.5
2017-Jul-16 19:30N 45°06' E 012°42'918.8
2017-Jul-16 19:01N 45°11' E 012°31'816.8
2017-Jul-16 18:30N 45°18' E 012°24'510.6
2017-Jul-16 18:00N 45°20' E 012°18'3 6.9
2017-Jul-16 17:30N 45°24' E 012°16'3 6.3
2017-Jul-16 17:00N 45°27' E 012°16'0 0.8
2017-Jul-16 16:30N 45°27' E 012°15'0 0.8
2017-Jul-16 16:00N 45°27' E 012°15'0 0.0
2017-Jul-16 15:30N 45°27' E 012°15'0 0.0
2017-Jul-16 15:00N 45°27' E 012°15'0 0.0
2017-Jul-16 14:30N 45°27' E 012°15'0 0.0
2017-Jul-16 14:00N 45°27' E 012°15'0 0.0
2017-Jul-16 13:30N 45°27' E 012°15'0 0.0
2017-Jul-16 13:00N 45°27' E 012°15'0 0.0
2017-Jul-16 12:30N 45°27' E 012°15'0 0.0
2017-Jul-16 11:58N 45°27' E 012°15'0 0.0
2017-Jul-16 11:30N 45°27' E 012°15'0 0.0
2017-Jul-16 11:00N 45°27' E 012°15'0 0.0
2017-Jul-16 10:30N 45°27' E 012°15'0 0.0
2017-Jul-16 10:00N 45°27' E 012°15'0 0.0
2017-Jul-16 09:27N 45°27' E 012°15'0 0.0
2017-Jul-16 09:00N 45°27' E 012°15'0 0.0
2017-Jul-16 08:30N 45°27' E 012°15'0 0.0
2017-Jul-16 08:00N 45°27' E 012°15'0 0.0
2017-Jul-16 07:30N 45°27' E 012°15'0 0.0
2017-Jul-16 07:00N 45°27' E 012°15'0 0.0
2017-Jul-16 06:30N 45°27' E 012°15'0 1.0
2017-Jul-16 06:00N 45°27' E 012°15'1 1.4
2017-Jul-16 05:30N 45°26' E 012°16'4 7.3
2017-Jul-16 05:00N 45°23' E 012°15'4 7.9
2017-Jul-16 04:30N 45°20' E 012°20'4 8.5
2017-Jul-16 04:00N 45°19' E 012°26'714.5
2017-Jul-16 03:30N 45°15' E 012°35'1121.4
2017-Jul-16 03:00N 45°09' E 012°46'1121.3
2017-Jul-16 02:30N 44°59' E 012°53'1121.6
2017-Jul-16 02:00N 44°49' E 012°59'1121.9
2017-Jul-16 01:30N 44°39' E 013°05'1122.0
2017-Jul-16 01:00N 44°29' E 013°10'1122.1
2017-Jul-16 00:30N 44°18' E 013°16'  
Track history (hours):
 
Tides and Currents Weather Stations Pressure Air Temp Water Temp Dewpoint Dewpoint Depression Visibility Wind Speed Wind Dir Waves Ship Positions

Barbarossa

Last reported at 2017-Jul-24 01:39 UTC. Time now 2017-Jul-24 08:24 UTC.
Position N 43°18' E 014°51'.

Length 294 m; draft 8.1 m.

Type: Passenger vessel. MMSI: 247282900.

Date/timePositionNaut miles runAvg speedWind from/ knotsBaromVisibWave heightAir tempDewpointWater temp
2017-Jul-24 01:39N 43°18' E 014°51'718.5
2017-Jul-24 01:15N 43°23' E 014°45'518.4
2017-Jul-24 00:59N 43°27' E 014°41'1518.6
2017-Jul-24 00:11N 43°39' E 014°29'318.4
2017-Jul-24 00:00N 43°42' E 014°26'918.5
2017-Jul-23 23:30N 43°50' E 014°19'918.6
2017-Jul-23 23:00N 43°57' E 014°11'918.4
2017-Jul-23 22:30N 44°05' E 014°04'918.2
2017-Jul-23 22:00N 44°12' E 013°56'918.0
2017-Jul-23 21:30N 44°20' E 013°49'917.5
2017-Jul-23 21:00N 44°27' E 013°43'917.6
2017-Jul-23 20:31N 44°34' E 013°36'917.5
2017-Jul-23 20:00N 44°42' E 013°29'917.5
2017-Jul-23 19:31N 44°49' E 013°23'917.3
2017-Jul-23 19:01N 44°56' E 013°15'917.2
2017-Jul-23 18:31N 45°02' E 013°07'917.3
2017-Jul-23 18:01N 45°08' E 012°58'917.1
2017-Jul-23 17:30N 45°14' E 012°49'817.0
2017-Jul-23 17:01N 45°19' E 012°39'816.3
2017-Jul-23 16:31N 45°23' E 012°30'510.4
2017-Jul-23 16:01N 45°26' E 012°24'2 4.9
2017-Jul-23 15:31N 45°26' E 012°20'1 2.5
2017-Jul-23 15:01N 45°26' E 012°19'0 0.0
2017-Jul-23 14:28N 45°26' E 012°19'0 0.0
2017-Jul-23 13:58N 45°26' E 012°18'0 0.0
2017-Jul-23 13:28N 45°26' E 012°18'0 0.0
2017-Jul-23 12:58N 45°26' E 012°18'0 0.0
2017-Jul-23 12:28N 45°26' E 012°19'0 0.0
2017-Jul-23 11:59N 45°26' E 012°18'0 0.0
2017-Jul-23 11:29N 45°26' E 012°18'0 0.0
2017-Jul-23 11:00N 45°26' E 012°18'0 0.0
2017-Jul-23 10:30N 45°26' E 012°18'0 0.0
2017-Jul-23 10:00N 45°26' E 012°18'0 0.0
2017-Jul-23 09:30N 45°26' E 012°18'0 0.0
2017-Jul-23 08:57N 45°26' E 012°19'0 0.0
2017-Jul-23 08:30N 45°26' E 012°19'0 0.0
2017-Jul-23 08:00N 45°26' E 012°18'0 0.0
2017-Jul-23 07:29N 45°26' E 012°18'0 0.1
2017-Jul-23 07:01N 45°26' E 012°18'2 3.1
2017-Jul-23 06:30N 45°26' E 012°21'2 4.5
2017-Jul-23 06:00N 45°26' E 012°24'510.0
2017-Jul-23 05:30N 45°24' E 012°30'611.8
2017-Jul-23 05:00N 45°20' E 012°37'917.2
2017-Jul-23 04:30N 45°15' E 012°47'2119.1
2017-Jul-23 03:23N 45°02' E 013°11'820.7
2017-Jul-23 03:00N 44°57' E 013°19'1020.3
2017-Jul-23 02:30N 44°49' E 013°28'918.9
2017-Jul-23 02:00N 44°41' E 013°35'917.9
2017-Jul-23 01:30N 44°33' E 013°42'918.5
2017-Jul-23 01:00N 44°26' E 013°49'918.3
2017-Jul-23 00:30N 44°18' E 013°57'918.3
2017-Jul-23 00:00N 44°11' E 014°04'918.4
2017-Jul-22 23:30N 44°03' E 014°12'918.3
2017-Jul-22 23:00N 43°56' E 014°20'1418.2
2017-Jul-22 22:16N 43°46' E 014°33'518.1
2017-Jul-22 22:00N 43°43' E 014°37'918.5
2017-Jul-22 21:30N 43°36' E 014°45'22610.0
2017-Jul-21 22:49N 41°06' E 018°35'1016.2
2017-Jul-21 22:12N 40°56' E 018°38'416.3
2017-Jul-21 21:57N 40°53' E 018°39'716.0
2017-Jul-21 21:30N 40°45' E 018°42'815.8
2017-Jul-21 21:00N 40°38' E 018°44'815.6
2017-Jul-21 20:30N 40°30' E 018°47'815.5
2017-Jul-21 19:59N 40°23' E 018°50'815.5
2017-Jul-21 19:29N 40°15' E 018°53'10615.3
2017-Jul-21 12:36N 38°39' E 019°50'216.1
2017-Jul-21 12:30N 38°38' E 019°51'2715.7
2017-Jul-21 10:46N 38°13' E 020°07'23212.6
2017-Jul-20 16:20N 37°12' E 024°49'515.1
2017-Jul-20 16:00N 37°14' E 024°55'815.7
2017-Jul-20 15:30N 37°18' E 025°04'816.7
2017-Jul-20 15:00N 37°25' E 025°07'10 9.8
2017-Jul-20 14:00N 37°28' E 025°19'0 0.0
2017-Jul-20 13:28N 37°28' E 025°19'0 0.0
2017-Jul-20 12:58N 37°28' E 025°19'0 0.0
2017-Jul-20 12:28N 37°28' E 025°19'0 0.0
2017-Jul-20 11:55N 37°28' E 025°19'0 0.0
2017-Jul-20 11:28N 37°28' E 025°19'0 0.0
2017-Jul-20 10:59N 37°28' E 025°19'0 0.0
2017-Jul-20 10:28N 37°28' E 025°19'0 0.0
2017-Jul-20 09:59N 37°28' E 025°19'0 0.0
2017-Jul-20 09:29N 37°28' E 025°19'0 0.0
2017-Jul-20 08:58N 37°28' E 025°19'0 0.0
2017-Jul-20 08:28N 37°28' E 025°19'0 0.0
2017-Jul-20 07:58N 37°28' E 025°19'0 0.0
2017-Jul-20 07:05N 37°28' E 025°19'0 0.0
2017-Jul-20 06:58N 37°28' E 025°19'0 0.0
2017-Jul-20 06:28N 37°28' E 025°19'0 0.0
2017-Jul-20 05:58N 37°28' E 025°19'0 0.0
2017-Jul-20 05:29N 37°28' E 025°19'0 0.0
2017-Jul-20 04:58N 37°28' E 025°19'0 0.0
2017-Jul-20 04:28N 37°28' E 025°19'0 0.0
2017-Jul-20 03:58N 37°28' E 025°19'0 0.0
2017-Jul-20 03:31N 37°28' E 025°19'0 0.1
2017-Jul-20 03:01N 37°28' E 025°19'1 1.4
2017-Jul-20 02:30N 37°28' E 025°18'611.5
2017-Jul-20 02:01N 37°27' E 025°11'510.7
2017-Jul-20 01:30N 37°24' E 025°07'713.5
2017-Jul-20 01:00N 37°18' E 025°02'714.4
2017-Jul-20 00:31N 37°15' E 024°54'  
2017-Jul-16 22:44N 44°09' E 013°18'620.1
2017-Jul-16 22:26N 44°13' E 013°12'920.0
2017-Jul-16 22:00N 44°21' E 013°08'1019.1
2017-Jul-16 21:30N 44°30' E 013°04'1019.3
2017-Jul-16 21:00N 44°40' E 012°60'919.1
2017-Jul-16 20:30N 44°49' E 012°55'1019.2
2017-Jul-16 20:00N 44°57' E 012°48'1019.5
2017-Jul-16 19:30N 45°06' E 012°42'918.8
2017-Jul-16 19:01N 45°11' E 012°31'816.8
2017-Jul-16 18:30N 45°18' E 012°24'510.6
2017-Jul-16 18:00N 45°20' E 012°18'3 6.9
2017-Jul-16 17:30N 45°24' E 012°16'3 6.3
2017-Jul-16 17:00N 45°27' E 012°16'0 0.8
2017-Jul-16 16:30N 45°27' E 012°15'0 0.8
2017-Jul-16 16:00N 45°27' E 012°15'0 0.0
2017-Jul-16 15:30N 45°27' E 012°15'0 0.0
2017-Jul-16 15:00N 45°27' E 012°15'0 0.0
2017-Jul-16 14:30N 45°27' E 012°15'0 0.0
2017-Jul-16 14:00N 45°27' E 012°15'0 0.0
2017-Jul-16 13:30N 45°27' E 012°15'0 0.0
2017-Jul-16 13:00N 45°27' E 012°15'0 0.0
2017-Jul-16 12:30N 45°27' E 012°15'0 0.0
2017-Jul-16 11:58N 45°27' E 012°15'0 0.0
2017-Jul-16 11:30N 45°27' E 012°15'0 0.0
2017-Jul-16 11:00N 45°27' E 012°15'0 0.0
2017-Jul-16 10:30N 45°27' E 012°15'0 0.0
2017-Jul-16 10:00N 45°27' E 012°15'0 0.0
2017-Jul-16 09:27N 45°27' E 012°15'0 0.0
2017-Jul-16 09:00N 45°27' E 012°15'0 0.0
2017-Jul-16 08:30N 45°27' E 012°15'0 0.0
2017-Jul-16 08:00N 45°27' E 012°15'0 0.0
2017-Jul-16 07:30N 45°27' E 012°15'0 0.0
2017-Jul-16 07:00N 45°27' E 012°15'0 0.0
2017-Jul-16 06:30N 45°27' E 012°15'0 1.0
2017-Jul-16 06:00N 45°27' E 012°15'1 1.4
2017-Jul-16 05:30N 45°26' E 012°16'4 7.3
2017-Jul-16 05:00N 45°23' E 012°15'4 7.9
2017-Jul-16 04:30N 45°20' E 012°20'4 8.5
2017-Jul-16 04:00N 45°19' E 012°26'714.5
2017-Jul-16 03:30N 45°15' E 012°35'1121.4
2017-Jul-16 03:00N 45°09' E 012°46'1121.3
2017-Jul-16 02:30N 44°59' E 012°53'1121.6
2017-Jul-16 02:00N 44°49' E 012°59'1121.9
2017-Jul-16 01:30N 44°39' E 013°05'1122.0
2017-Jul-16 01:00N 44°29' E 013°10'1122.1
2017-Jul-16 00:30N 44°18' E 013°16'  

Dump ship's entire track history